Time;durP1;ratioP1;P1;durP2;ratioP2;P2;SDS_P1;SDS_P2;PMS_P1;PMS_P2;Temp;Humidity;BMP_temperature;BMP_pressure;BME280_temperature;BME280_humidity;BME280_pressure;Samples;Min_cycle;Max_cycle;Signal;HPM_P1;HPM_P2
2023/11/28 00:00:12;;;;;;;41.13;23.60;;;231.10;2252.80;;;;;;5060203;28;20112;-57
2023/11/28 00:02:38;;;;;;;18.92;10.10;;;231.10;2252.80;;;;;;5060668;28;20536;-57
2023/11/28 00:05:05;;;;;;;12.45;7.60;;;231.10;2252.80;;;;;;5064376;28;20029;-58
2023/11/28 00:07:33;;;;;;;46.40;35.92;;;231.10;2252.80;;;;;;5064786;28;20792;-56
2023/11/28 00:09:59;;;;;;;25.48;13.82;;;231.10;2252.80;;;;;;5063908;28;20024;-56
2023/11/28 00:12:26;;;;;;;21.73;13.48;;;231.10;2252.80;;;;;;5061387;28;20045;-57
2023/11/28 00:14:51;;;;;;;31.27;19.20;;;231.10;2252.80;;;;;;5073504;28;20013;-57
2023/11/28 00:17:17;;;;;;;24.25;16.00;;;231.10;2252.80;;;;;;5073996;28;20040;-56
2023/11/28 00:19:43;;;;;;;14.80;9.57;;;231.10;2252.80;;;;;;5073576;28;20020;-57
2023/11/28 00:22:09;;;;;;;9.90;6.35;;;231.10;2252.80;;;;;;5079370;28;20031;-56
2023/11/28 00:27:57;;;;;;;11.75;5.70;;;231.00;2252.80;;;;;;5073226;28;20039;-57
2023/11/28 00:30:23;;;;;;;13.35;7.43;;;231.00;2252.80;;;;;;5072955;28;20486;-57
2023/11/28 00:32:48;;;;;;;16.40;9.68;;;231.00;2252.80;;;;;;5073154;28;20028;-56
2023/11/28 00:35:14;;;;;;;8.77;5.55;;;231.00;2252.80;;;;;;5072931;28;20465;-57
2023/11/28 00:37:40;;;;;;;11.55;8.02;;;231.00;2252.80;;;;;;5073019;28;20040;-57
2023/11/28 00:40:11;;;;;;;10.27;5.75;;;231.10;2252.80;;;;;;5072780;28;20496;-57
2023/11/28 00:42:40;;;;;;;12.52;8.43;;;231.10;2252.80;;;;;;5073026;28;20033;-57
2023/11/28 00:45:09;;;;;;;11.95;7.10;;;231.10;2252.80;;;;;;5072647;28;20021;-57
2023/11/28 00:47:35;;;;;;;10.48;7.65;;;231.00;2252.80;;;;;;5073077;28;20028;-57
2023/11/28 00:50:01;;;;;;;15.07;8.40;;;231.00;2252.80;;;;;;5073351;28;20086;-55
2023/11/28 00:52:27;;;;;;;28.10;15.98;;;231.10;2252.80;;;;;;5072618;28;20025;-57
2023/11/28 00:58:15;;;;;;;22.45;10.60;;;231.10;2252.80;;;;;;5074779;28;20040;-56
2023/11/28 01:00:40;;;;;;;11.90;5.38;;;231.00;2252.80;;;;;;5072804;28;20033;-56
2023/11/28 01:03:06;;;;;;;16.90;9.30;;;231.00;2252.80;;;;;;5072508;28;20025;-58
2023/11/28 01:05:32;;;;;;;11.25;7.18;;;231.20;2252.80;;;;;;5072567;28;20107;-57
2023/11/28 01:07:58;;;;;;;11.45;7.60;;;231.10;2252.80;;;;;;5072797;28;20059;-56
2023/11/28 01:10:24;;;;;;;18.83;8.63;;;231.20;2252.80;;;;;;5072320;28;20029;-57
2023/11/28 01:12:50;;;;;;;16.05;7.00;;;231.10;2252.80;;;;;;5072558;28;20047;-57
2023/11/28 01:15:17;;;;;;;13.45;8.55;;;231.20;2252.80;;;;;;5072799;28;20025;-57
2023/11/28 01:17:43;;;;;;;6.20;3.88;;;231.00;2252.80;;;;;;5072635;28;20474;-57
2023/11/28 01:20:11;;;;;;;11.55;6.80;;;231.10;2252.80;;;;;;5072487;28;20028;-57
2023/11/28 01:22:37;;;;;;;8.25;5.55;;;231.10;2252.80;;;;;;5072605;28;20082;-58
2023/11/28 01:28:25;;;;;;;7.05;4.07;;;231.10;2252.80;;;;;;5072699;28;20098;-56
2023/11/28 01:30:51;;;;;;;9.20;5.70;;;231.10;2252.80;;;;;;5072298;28;20535;-56
2023/11/28 01:33:17;;;;;;;26.55;16.75;;;231.10;2252.80;;;;;;5072700;28;20024;-55
2023/11/28 01:35:42;;;;;;;7.95;5.40;;;231.20;2252.80;;;;;;5072811;28;20028;-56
2023/11/28 01:38:08;;;;;;;10.52;6.70;;;231.20;2252.80;;;;;;5072197;28;20502;-57
2023/11/28 01:40:34;;;;;;;9.50;5.30;;;231.30;2252.80;;;;;;5072124;28;20035;-57
2023/11/28 01:43:00;;;;;;;10.32;6.25;;;256.00;2252.80;;;;;;5072211;28;20068;-56
2023/11/28 01:45:26;;;;;;;13.05;6.47;;;256.00;2252.80;;;;;;5072229;28;20029;-56
2023/11/28 01:47:55;;;;;;;17.30;8.98;;;231.30;2252.80;;;;;;5072416;28;20048;-56
2023/11/28 01:50:21;;;;;;;9.43;6.55;;;231.30;2252.80;;;;;;5072142;28;20028;-56
2023/11/28 01:52:48;;;;;;;10.40;6.07;;;231.30;2252.80;;;;;;5072392;28;20025;-56
2023/11/28 01:58:36;;;;;;;10.98;7.05;;;231.30;2252.80;;;;;;5075977;28;20095;-57
2023/11/28 02:01:01;;;;;;;20.75;11.80;;;256.00;2252.80;;;;;;5075552;28;20024;-56
2023/11/28 02:03:28;;;;;;;19.30;11.88;;;256.00;2252.80;;;;;;5075840;28;20025;-57
2023/11/28 02:05:54;;;;;;;26.77;15.95;;;256.00;2252.80;;;;;;5075545;28;20028;-56
2023/11/28 02:08:19;;;;;;;15.68;9.73;;;256.00;2252.80;;;;;;5075501;28;20024;-56
2023/11/28 02:10:45;;;;;;;9.68;6.70;;;256.00;2252.80;;;;;;5075309;28;20048;-56
2023/11/28 02:13:11;;;;;;;12.70;8.13;;;256.10;2252.80;;;;;;5075919;28;20021;-57
2023/11/28 02:15:40;;;;;;;8.60;5.82;;;256.10;2252.80;;;;;;5075870;28;20028;-56
2023/11/28 02:18:08;;;;;;;11.60;7.03;;;256.10;2252.80;;;;;;5075330;28;20029;-57
2023/11/28 02:20:34;;;;;;;6.78;4.03;;;256.10;2252.80;;;;;;5075266;28;20054;-57
2023/11/28 02:22:59;;;;;;;13.32;8.80;;;231.30;2252.80;;;;;;5075238;28;20028;-57
2023/11/28 02:28:47;;;;;;;15.13;7.10;;;231.20;2252.80;;;;;;5075417;28;20042;-57
2023/11/28 02:31:13;;;;;;;12.30;5.63;;;231.00;2252.80;;;;;;5075114;28;20025;-56
2023/11/28 02:33:38;;;;;;;7.47;4.20;;;231.10;2252.80;;;;;;5075026;28;20082;-56
2023/11/28 02:36:05;;;;;;;6.63;3.85;;;230.90;2252.80;;;;;;5074997;28;20028;-57
2023/11/28 02:38:31;;;;;;;16.23;12.00;;;230.80;2252.80;;;;;;5074921;28;20041;-57
2023/11/28 02:40:56;;;;;;;22.02;11.95;;;230.90;2252.80;;;;;;5072267;28;20119;-57
2023/11/28 02:43:22;;;;;;;21.20;14.38;;;231.10;2252.80;;;;;;5071804;28;20390;-56
2023/11/28 02:45:48;;;;;;;20.05;12.93;;;231.30;2252.80;;;;;;5071083;28;20071;-57
2023/11/28 02:48:13;;;;;;;9.43;5.50;;;256.00;2252.80;;;;;;5071082;28;20134;-57
2023/11/28 02:50:39;;;;;;;12.40;7.40;;;256.00;2252.80;;;;;;5071484;28;20052;-57
2023/11/28 02:53:05;;;;;;;11.57;7.18;;;231.30;2252.80;;;;;;5071078;28;20032;-57
2023/11/28 02:55:31;;;;;;;10.00;5.32;;;231.30;2252.80;;;;;;5071161;28;20028;-57
2023/11/28 02:58:00;;;;;;;7.78;4.55;;;231.20;2252.80;;;;;;5071017;28;20037;-57
2023/11/28 03:00:26;;;;;;;13.90;5.18;;;231.20;2252.80;;;;;;5071392;28;20071;-57
2023/11/28 03:02:52;;;;;;;7.55;3.70;;;231.30;2252.80;;;;;;5071262;28;20044;-56
2023/11/28 03:05:18;;;;;;;5.55;3.40;;;231.20;2252.80;;;;;;5071093;28;20024;-57
2023/11/28 03:07:43;;;;;;;3.88;2.40;;;231.30;2252.80;;;;;;5070122;28;20032;-57
2023/11/28 03:10:09;;;;;;;7.00;3.47;;;231.30;2252.80;;;;;;5070309;28;20115;-55
2023/11/28 03:12:35;;;;;;;9.23;3.67;;;231.30;2252.80;;;;;;5070454;28;20049;-57
2023/11/28 03:15:02;;;;;;;5.25;2.65;;;256.00;2252.80;;;;;;5070969;28;20036;-56
2023/11/28 03:17:28;;;;;;;6.25;2.70;;;256.00;2252.80;;;;;;5063876;28;20052;-56
2023/11/28 03:19:53;;;;;;;4.82;3.10;;;256.00;2252.80;;;;;;5070821;28;20021;-56
2023/11/28 03:22:19;;;;;;;5.43;2.97;;;256.10;2252.80;;;;;;5070864;28;20066;-57
2023/11/28 03:24:46;;;;;;;4.47;2.15;;;256.10;2252.80;;;;;;5070822;28;20070;-57
2023/11/28 03:27:12;;;;;;;4.43;2.17;;;256.10;2252.80;;;;;;5070149;28;20036;-58
2023/11/28 03:29:39;;;;;;;5.88;3.17;;;256.10;2252.80;;;;;;5070397;28;20459;-57
2023/11/28 03:32:05;;;;;;;14.23;7.38;;;256.00;2252.80;;;;;;5070257;28;20035;-57
2023/11/28 03:34:31;;;;;;;12.82;6.47;;;256.00;2252.80;;;;;;5070664;28;20024;-56
2023/11/28 03:36:59;;;;;;;11.75;7.35;;;231.30;2252.80;;;;;;5070341;28;20033;-57
2023/11/28 03:39:25;;;;;;;9.68;6.05;;;230.80;2252.80;;;;;;5069864;28;20028;-57
2023/11/28 03:41:51;;;;;;;17.48;10.07;;;230.60;2252.80;;;;;;5057297;28;20028;-57
2023/11/28 03:44:17;;;;;;;12.65;7.18;;;230.60;2252.80;;;;;;5070268;28;20025;-57
2023/11/28 03:46:43;;;;;;;9.57;5.97;;;230.40;2252.80;;;;;;5070005;28;20047;-57
2023/11/28 03:49:09;;;;;;;7.00;3.83;;;230.40;2252.80;;;;;;5070222;28;20052;-56
2023/11/28 03:51:36;;;;;;;5.93;3.63;;;230.60;2252.80;;;;;;5059994;28;20108;-57
2023/11/28 03:54:02;;;;;;;3.20;2.00;;;230.80;2252.80;;;;;;5059955;28;20028;-57
2023/11/28 03:56:28;;;;;;;12.38;5.93;;;230.90;2252.80;;;;;;5069386;28;20482;-57
2023/11/28 03:58:55;;;;;;;9.52;6.00;;;230.80;2252.80;;;;;;5069778;28;20103;-58
2023/11/28 04:01:21;;;;;;;13.23;7.63;;;230.60;2252.80;;;;;;5069671;28;20077;-57
2023/11/28 04:03:47;;;;;;;11.95;7.65;;;230.40;2252.80;;;;;;5069650;28;20054;-56
2023/11/28 04:06:13;;;;;;;10.48;6.20;;;230.40;2252.80;;;;;;5069415;28;20020;-57
2023/11/28 04:08:39;;;;;;;23.08;10.85;;;230.50;2252.80;;;;;;5069515;28;20060;-57
2023/11/28 04:11:05;;;;;;;9.43;5.20;;;230.60;2252.80;;;;;;5069179;28;20075;-57
2023/11/28 04:13:31;;;;;;;12.27;7.03;;;230.80;2252.80;;;;;;5069836;28;20032;-57
2023/11/28 04:15:57;;;;;;;23.63;11.55;;;230.60;2252.80;;;;;;5069784;28;20024;-57
2023/11/28 04:18:24;;;;;;;17.35;9.93;;;205.70;2252.80;;;;;;5069888;28;20024;-57
2023/11/28 04:20:51;;;;;;;22.38;10.27;;;205.40;2252.80;;;;;;5069189;28;20055;-57
2023/11/28 04:23:16;;;;;;;15.70;9.85;;;205.20;2252.80;;;;;;5069370;28;20115;-57
2023/11/28 04:25:42;;;;;;;15.98;9.23;;;205.20;2252.80;;;;;;5069536;28;20020;-57
2023/11/28 04:28:08;;;;;;;16.25;10.10;;;205.00;2252.80;;;;;;5058427;28;20082;-56
2023/11/28 04:30:34;;;;;;;17.95;9.95;;;205.20;2252.80;;;;;;5054637;28;20025;-56
2023/11/28 04:32:59;;;;;;;15.13;9.20;;;205.30;2252.80;;;;;;5069721;28;20032;-56
2023/11/28 04:35:25;;;;;;;19.70;11.65;;;205.20;2252.80;;;;;;5069266;28;20031;-57
2023/11/28 04:37:51;;;;;;;25.48;13.00;;;205.10;2252.80;;;;;;5069202;28;20123;-57
2023/11/28 04:40:17;;;;;;;20.90;13.75;;;205.10;2252.80;;;;;;5068494;28;20457;-57
2023/11/28 04:42:43;;;;;;;22.77;11.93;;;205.10;2252.80;;;;;;5069703;28;20199;-56
2023/11/28 04:45:10;;;;;;;23.63;14.32;;;205.10;2252.80;;;;;;5069693;28;20021;-58
2023/11/28 04:47:35;;;;;;;21.27;11.27;;;205.20;2252.80;;;;;;5070189;28;20024;-58
2023/11/28 04:50:01;;;;;;;22.60;12.40;;;205.20;2252.80;;;;;;5069983;28;20388;-58
2023/11/28 04:52:27;;;;;;;20.52;12.38;;;205.10;2252.80;;;;;;5069593;28;20051;-57
2023/11/28 04:54:53;;;;;;;16.10;10.23;;;205.20;2252.80;;;;;;5069245;28;20027;-57
2023/11/28 04:57:19;;;;;;;20.38;13.55;;;205.20;2252.80;;;;;;5065066;28;20047;-57
2023/11/28 04:59:44;;;;;;;27.48;14.95;;;205.20;2252.80;;;;;;5053973;28;20024;-57
2023/11/28 05:02:10;;;;;;;25.83;12.90;;;205.10;2252.80;;;;;;5069213;28;20052;-57
2023/11/28 05:04:36;;;;;;;23.48;13.63;;;205.00;2252.80;;;;;;5069092;28;20012;-57
2023/11/28 05:07:03;;;;;;;24.88;14.93;;;205.00;2252.80;;;;;;5068895;28;20028;-57
2023/11/28 05:09:29;;;;;;;28.30;15.10;;;204.90;2252.80;;;;;;5068608;28;20048;-57
2023/11/28 05:11:55;;;;;;;67.07;36.00;;;205.10;2252.80;;;;;;5068924;28;20088;-57
2023/11/28 05:14:21;;;;;;;48.40;26.48;;;205.20;2252.80;;;;;;5069035;28;20390;-56
2023/11/28 05:16:46;;;;;;;316.27;165.77;;;205.10;2252.80;;;;;;5068771;28;20486;-57
2023/11/28 05:19:12;;;;;;;88.40;45.80;;;205.30;2252.80;;;;;;5068799;28;20100;-57
2023/11/28 05:21:38;;;;;;;51.88;26.25;;;205.20;2252.80;;;;;;5069048;28;20025;-57
2023/11/28 05:24:04;;;;;;;29.13;18.10;;;205.30;2252.80;;;;;;5069126;28;20095;-57
2023/11/28 05:26:30;;;;;;;22.92;14.73;;;205.10;2252.80;;;;;;5069272;28;20430;-57
2023/11/28 05:28:55;;;;;;;26.90;16.30;;;205.00;2252.80;;;;;;5066869;28;20474;-57
2023/11/28 05:31:21;;;;;;;29.25;16.60;;;205.20;2252.80;;;;;;5062733;28;20463;-56
2023/11/28 05:33:47;;;;;;;32.40;16.80;;;205.20;2252.80;;;;;;5072682;28;20154;-57
2023/11/28 05:36:13;;;;;;;39.60;24.02;;;205.30;2252.80;;;;;;5072635;28;20123;-56
2023/11/28 05:38:39;;;;;;;48.88;28.27;;;205.40;2252.80;;;;;;5072292;28;20017;-56
2023/11/28 05:41:05;;;;;;;89.78;48.15;;;205.50;2252.80;;;;;;5071439;28;20032;-58
2023/11/28 05:43:32;;;;;;;166.60;103.15;;;205.50;2252.80;;;;;;5072786;28;20493;-57
2023/11/28 05:45:58;;;;;;;42.33;23.70;;;205.40;2252.80;;;;;;5072069;28;20411;-57
2023/11/28 05:48:25;;;;;;;41.97;22.77;;;205.30;2252.80;;;;;;5072467;28;20017;-57
2023/11/28 05:50:54;;;;;;;279.10;116.07;;;205.30;2252.80;;;;;;5072230;28;20039;-57
2023/11/28 05:53:19;;;;;;;37.38;24.92;;;205.20;2252.80;;;;;;5072397;28;20485;-56
2023/11/28 05:55:48;;;;;;;39.00;28.30;;;205.00;2252.80;;;;;;5071672;28;20024;-57
2023/11/28 05:58:17;;;;;;;54.05;36.90;;;205.00;2252.80;;;;;;5071269;28;20044;-57
2023/11/28 06:00:42;;;;;;;62.90;36.38;;;205.20;2252.80;;;;;;5070099;28;20024;-57
2023/11/28 06:03:08;;;;;;;63.75;41.97;;;205.20;2252.80;;;;;;5071751;28;20025;-57
2023/11/28 06:05:34;;;;;;;177.80;79.60;;;205.20;2252.80;;;;;;5067226;28;20028;-57
2023/11/28 06:08:00;;;;;;;118.05;67.85;;;205.30;2252.80;;;;;;5071864;28;20021;-57
2023/11/28 06:10:29;;;;;;;55.50;32.97;;;205.40;2252.80;;;;;;5071190;28;20029;-58
2023/11/28 06:12:55;;;;;;;58.67;41.10;;;205.20;2252.80;;;;;;5071717;28;20115;-57
2023/11/28 06:15:21;;;;;;;57.58;35.95;;;205.20;2252.80;;;;;;5071954;28;20115;-55
2023/11/28 06:17:46;;;;;;;82.65;48.92;;;205.20;2252.80;;;;;;5072056;28;20044;-58
2023/11/28 06:20:14;;;;;;;74.40;48.38;;;205.30;2252.80;;;;;;5071974;28;20048;-57
2023/11/28 06:22:42;;;;;;;86.30;54.92;;;205.40;2252.80;;;;;;5071516;28;20035;-57
2023/11/28 06:25:09;;;;;;;121.30;66.80;;;205.50;2252.80;;;;;;5071055;28;20025;-56
2023/11/28 06:27:35;;;;;;;86.53;50.55;;;205.60;2252.80;;;;;;5071536;28;20514;-58
2023/11/28 06:30:01;;;;;;;51.20;30.25;;;205.50;2252.80;;;;;;5071238;28;20028;-57
2023/11/28 06:32:26;;;;;;;47.47;31.83;;;205.10;2252.80;;;;;;5071374;28;20050;-58
2023/11/28 06:34:52;;;;;;;99.75;59.40;;;205.20;2252.80;;;;;;5071380;28;20458;-57
2023/11/28 06:37:18;;;;;;;246.63;141.68;;;205.30;2252.80;;;;;;5069393;28;20120;-57
2023/11/28 06:39:45;;;;;;;105.80;64.20;;;205.40;2252.80;;;;;;5065534;28;20134;-57
2023/11/28 06:42:11;;;;;;;87.30;58.85;;;205.40;2252.80;;;;;;5070770;28;20036;-55
2023/11/28 06:44:37;;;;;;;97.30;63.38;;;205.30;2252.80;;;;;;5071037;28;20150;-57
2023/11/28 06:47:03;;;;;;;123.82;74.72;;;205.30;2252.80;;;;;;5071417;28;20020;-57
2023/11/28 06:49:28;;;;;;;100.30;67.32;;;205.30;2252.80;;;;;;5070985;28;20017;-57
2023/11/28 06:51:54;;;;;;;92.53;63.75;;;205.20;2252.80;;;;;;5071253;28;20028;-58
2023/11/28 06:54:20;;;;;;;81.72;57.42;;;205.10;2252.80;;;;;;5071157;28;20024;-57
2023/11/28 06:56:46;;;;;;;105.55;71.53;;;205.20;2252.80;;;;;;5070757;28;20036;-58
2023/11/28 06:59:12;;;;;;;110.00;78.60;;;205.30;2252.80;;;;;;5070914;28;20031;-57
2023/11/28 07:01:41;;;;;;;107.13;75.72;;;205.30;2252.80;;;;;;5071139;28;20027;-58
2023/11/28 07:04:06;;;;;;;108.65;73.85;;;205.30;2252.80;;;;;;5069933;28;20430;-56
2023/11/28 07:06:32;;;;;;;111.93;66.07;;;205.30;2252.80;;;;;;5070448;28;20048;-57
2023/11/28 07:08:58;;;;;;;80.68;51.47;;;205.60;2252.80;;;;;;5068324;28;20028;-56
2023/11/28 07:11:24;;;;;;;100.47;65.30;;;205.30;2252.80;;;;;;5063240;28;20049;-57
2023/11/28 07:13:53;;;;;;;62.45;40.20;;;205.40;2252.80;;;;;;5070292;28;20067;-57
2023/11/28 07:16:19;;;;;;;67.38;42.53;;;205.40;2252.80;;;;;;5069926;28;20063;-57
2023/11/28 07:18:44;;;;;;;60.10;38.97;;;205.20;2252.80;;;;;;5070929;28;20612;-58
2023/11/28 07:21:11;;;;;;;97.07;59.65;;;205.40;2252.80;;;;;;5069907;28;20487;-58
2023/11/28 07:23:38;;;;;;;72.40;48.13;;;205.50;2252.80;;;;;;5069338;28;20032;-58
2023/11/28 07:26:07;;;;;;;67.57;40.42;;;205.40;2252.80;;;;;;5069800;28;20025;-57
2023/11/28 07:28:33;;;;;;;83.55;49.10;;;205.50;2252.80;;;;;;5070392;28;20025;-57
2023/11/28 07:30:59;;;;;;;81.80;49.75;;;205.50;2252.80;;;;;;5068842;28;20047;-59
2023/11/28 07:33:25;;;;;;;74.18;44.95;;;205.60;2252.80;;;;;;5070395;28;20020;-58
2023/11/28 07:35:51;;;;;;;93.15;55.47;;;205.50;2252.80;;;;;;5069865;28;20082;-58
2023/11/28 07:38:21;;;;;;;103.55;62.92;;;205.60;2252.80;;;;;;5069992;28;20033;-57
2023/11/28 07:40:48;;;;;;;53.13;38.90;;;205.60;2252.80;;;;;;5064853;28;20079;-58
2023/11/28 07:43:14;;;;;;;121.72;97.65;;;205.70;2252.80;;;;;;5059532;28;20032;-58
2023/11/28 07:45:40;;;;;;;55.42;39.05;;;205.60;2252.80;;;;;;5070190;28;20016;-59
2023/11/28 07:48:06;;;;;;;34.65;22.60;;;205.60;2252.80;;;;;;5069960;28;20119;-59
2023/11/28 07:50:32;;;;;;;42.65;29.67;;;205.40;2252.80;;;;;;5069858;28;20020;-57
2023/11/28 07:52:59;;;;;;;43.72;29.95;;;205.40;2252.80;;;;;;5069480;28;20043;-58
2023/11/28 07:55:24;;;;;;;52.92;32.70;;;205.50;2252.80;;;;;;5068969;28;20028;-58
2023/11/28 07:57:50;;;;;;;75.93;43.58;;;205.50;2252.80;;;;;;5069353;28;20175;-58
2023/11/28 08:00:18;;;;;;;42.85;27.17;;;205.60;2252.80;;;;;;5069782;28;20025;-59
2023/11/28 08:02:44;;;;;;;62.70;37.30;;;205.70;2252.80;;;;;;5069858;28;20021;-58
2023/11/28 08:05:09;;;;;;;45.67;27.67;;;205.60;2252.80;;;;;;5068641;28;20024;-59
2023/11/28 08:07:35;;;;;;;33.00;24.95;;;205.60;2252.80;;;;;;5068757;28;20024;-62
2023/11/28 08:10:03;;;;;;;43.05;31.23;;;205.50;2252.80;;;;;;5069576;28;20032;-58
2023/11/28 08:12:29;;;;;;;74.57;53.03;;;205.40;2252.80;;;;;;5061922;28;20078;-58
2023/11/28 08:14:54;;;;;;;49.80;35.45;;;205.30;2252.80;;;;;;5062120;28;20021;-58
2023/11/28 08:17:20;;;;;;;35.88;24.85;;;205.50;2252.80;;;;;;5069457;28;20040;-60
2023/11/28 08:19:46;;;;;;;50.58;35.75;;;205.60;2252.80;;;;;;5062122;28;20920;-58
2023/11/28 08:22:12;;;;;;;41.60;28.10;;;205.60;2252.80;;;;;;5068912;28;20027;-58
2023/11/28 08:24:38;;;;;;;58.88;38.83;;;205.70;2252.80;;;;;;5069028;28;20028;-59
2023/11/28 08:27:04;;;;;;;76.80;50.72;;;205.70;2252.80;;;;;;5069575;28;20029;-58
2023/11/28 08:29:30;;;;;;;71.75;44.63;;;205.70;2252.80;;;;;;5069611;28;20021;-63
2023/11/28 08:31:58;;;;;;;63.10;42.28;;;230.40;2252.80;;;;;;5057987;28;20048;-58
2023/11/28 08:34:25;;;;;;;63.13;38.63;;;230.50;2252.80;;;;;;5061592;28;20024;-58
2023/11/28 08:36:51;;;;;;;57.53;32.60;;;230.60;2252.80;;;;;;5057762;28;20051;-59
2023/11/28 08:39:17;;;;;;;59.13;37.28;;;230.50;2252.80;;;;;;5064605;28;20056;-57
2023/11/28 08:41:43;;;;;;;39.67;26.85;;;230.60;2252.80;;;;;;5058510;28;20114;-58
2023/11/28 08:44:09;;;;;;;32.63;20.80;;;230.60;2252.80;;;;;;5060232;28;20021;-59
2023/11/28 08:46:37;;;;;;;47.10;28.02;;;230.50;2252.80;;;;;;5065427;28;20020;-58
2023/11/28 08:49:05;;;;;;;41.90;24.63;;;230.60;2252.80;;;;;;5060696;28;20020;-64
2023/11/28 08:51:31;;;;;;;34.35;21.33;;;230.60;2252.80;;;;;;5066091;28;20486;-64
2023/11/28 08:53:57;;;;;;;49.88;30.25;;;205.70;2252.80;;;;;;5064491;28;20036;-58
2023/11/28 08:56:23;;;;;;;26.27;15.75;;;230.60;2252.80;;;;;;5059236;28;20068;-61
2023/11/28 08:58:49;;;;;;;205.77;185.48;;;205.70;2252.80;;;;;;5066643;28;20103;-58
2023/11/28 09:01:15;;;;;;;35.80;23.75;;;230.50;2252.80;;;;;;5068073;28;20505;-59
2023/11/28 09:03:42;;;;;;;46.53;28.23;;;230.70;2252.80;;;;;;5061935;28;20029;-58
2023/11/28 09:06:08;;;;;;;52.47;31.42;;;231.10;2252.80;;;;;;5064451;28;20056;-58
2023/11/28 09:08:34;;;;;;;33.50;20.27;;;231.10;2252.80;;;;;;5058928;28;20476;-58
2023/11/28 09:11:02;;;;;;;36.95;23.48;;;231.10;2252.80;;;;;;5060406;28;20055;-58
2023/11/28 09:13:28;;;;;;;43.35;27.00;;;231.20;2252.80;;;;;;5058297;28;20471;-57
2023/11/28 09:15:55;;;;;;;49.95;32.25;;;256.00;2252.80;;;;;;5060244;28;20029;-58
2023/11/28 09:18:21;;;;;;;69.22;39.22;;;256.30;2252.80;;;;;;5058753;28;20514;-58
2023/11/28 09:20:47;;;;;;;56.55;38.13;;;256.90;2252.80;;;;;;5060771;28;20068;-58
2023/11/28 09:23:14;;;;;;;42.33;28.85;;;281.80;2278.40;;;;;;5068611;28;20020;-58
2023/11/28 09:25:39;;;;;;;44.83;25.48;;;282.00;2278.40;;;;;;5063888;28;20486;-60
2023/11/28 09:28:05;;;;;;;39.88;24.45;;;256.90;2252.80;;;;;;5063353;28;20029;-59
2023/11/28 09:30:32;;;;;;;32.28;20.40;;;256.90;2252.80;;;;;;5057930;28;20158;-58
2023/11/28 09:32:58;;;;;;;63.83;36.85;;;281.70;2278.40;;;;;;5063576;28;20435;-60
2023/11/28 09:35:24;;;;;;;27.70;18.27;;;281.80;2278.40;;;;;;5063649;28;20086;-60
2023/11/28 09:37:51;;;;;;;63.53;41.75;;;256.80;2252.80;;;;;;5064362;28;20036;-58
2023/11/28 09:40:18;;;;;;;31.27;21.42;;;256.80;2252.80;;;;;;5054173;28;20044;-59
2023/11/28 09:42:45;;;;;;;40.95;28.00;;;256.60;2252.80;;;;;;5062113;28;21063;-58
2023/11/28 09:45:13;;;;;;;51.78;28.92;;;256.60;2252.80;;;;;;5062698;28;20037;-57
2023/11/28 09:47:40;;;;;;;41.42;27.85;;;256.50;2252.80;;;;;;5068790;28;20408;-59
2023/11/28 09:50:12;;;;;;;54.35;41.92;;;256.50;2252.80;;;;;;5062003;28;20036;-62
2023/11/28 09:52:42;;;;;;;123.95;83.15;;;256.80;2252.80;;;;;;5071750;28;20131;-59
2023/11/28 09:55:09;;;;;;;78.47;57.40;;;281.60;2278.40;;;;;;5072084;28;20051;-60
2023/11/28 09:57:39;;;;;;;55.30;45.08;;;281.80;2278.40;;;;;;5072279;28;20363;-59
2023/11/28 10:00:07;;;;;;;38.72;24.85;;;281.80;2278.40;;;;;;5071911;28;20066;-59
2023/11/28 10:02:34;;;;;;;31.33;17.88;;;282.00;2278.40;;;;;;5054165;28;20041;-59
2023/11/28 10:04:59;;;;;;;39.72;25.88;;;282.00;2278.40;;;;;;5071904;28;20012;-59
2023/11/28 10:07:31;;;;;;;27.05;17.33;;;282.40;2278.40;;;;;;5071620;28;20109;-59
2023/11/28 10:10:00;;;;;;;36.95;21.58;;;307.20;2304.00;;;;;;5071341;28;20035;-60
2023/11/28 10:12:27;;;;;;;24.83;15.55;;;282.30;2278.40;;;;;;5064317;28;20079;-58
2023/11/28 10:14:53;;;;;;;49.88;29.33;;;282.50;2278.40;;;;;;5062852;28;20016;-59
2023/11/28 10:17:19;;;;;;;35.30;19.77;;;307.20;2304.00;;;;;;5054836;28;20033;-59
2023/11/28 10:19:46;;;;;;;34.72;24.33;;;307.30;2304.00;;;;;;5058935;28;20025;-59
2023/11/28 10:22:13;;;;;;;48.10;32.83;;;307.30;2304.00;;;;;;5061053;28;20100;-57
2023/11/28 10:24:39;;;;;;;23.33;15.82;;;307.40;2304.00;;;;;;5056865;28;20487;-58
2023/11/28 10:27:05;;;;;;;17.20;9.65;;;307.40;2304.00;;;;;;5065976;28;20025;-58
2023/11/28 10:29:34;;;;;;;16.17;10.63;;;307.30;2304.00;;;;;;5055483;28;20355;-59
2023/11/28 10:32:01;;;;;;;21.45;13.25;;;307.60;2304.00;;;;;;5060175;28;20033;-58
2023/11/28 10:34:28;;;;;;;24.80;18.50;;;307.70;2304.00;;;;;;5058502;28;20036;-59
2023/11/28 10:36:58;;;;;;;18.80;13.32;;;307.70;2304.00;;;;;;5060689;28;20552;-59
2023/11/28 10:39:25;;;;;;;38.95;17.95;;;307.80;2304.00;;;;;;5055507;28;20037;-59
2023/11/28 10:41:51;;;;;;;22.55;16.13;;;307.80;2304.00;;;;;;5059478;28;20036;-58
2023/11/28 10:44:17;;;;;;;29.60;19.92;;;307.60;2304.00;;;;;;5070817;28;20035;-59
2023/11/28 10:46:43;;;;;;;27.42;18.20;;;307.80;2304.00;;;;;;5071093;28;20016;-61
2023/11/28 10:49:09;;;;;;;27.35;17.73;;;307.60;2304.00;;;;;;5070868;28;20086;-59
2023/11/28 10:51:36;;;;;;;32.55;19.63;;;307.40;2304.00;;;;;;5071125;28;20029;-63
2023/11/28 10:54:09;;;;;;;27.23;17.05;;;307.50;2304.00;;;;;;5070785;28;20509;-63
2023/11/28 10:57:01;;;;;;;19.00;12.43;;;307.40;2304.00;;;;;;5070790;28;20058;-64
2023/11/28 10:59:37;;;;;;;26.35;18.00;;;307.40;2304.00;;;;;;5070540;28;20024;-63
2023/11/28 11:02:08;;;;;;;29.83;21.20;;;307.60;2304.00;;;;;;5070824;28;20506;-62
2023/11/28 11:04:35;;;;;;;32.15;19.77;;;307.60;2304.00;;;;;;5070336;28;20033;-62
2023/11/28 11:07:02;;;;;;;36.33;23.10;;;307.50;2304.00;;;;;;5070434;28;20038;-61
2023/11/28 11:09:30;;;;;;;50.08;36.75;;;307.40;2304.00;;;;;;5070632;28;20371;-63
2023/11/28 11:11:57;;;;;;;43.53;28.02;;;307.20;2304.00;;;;;;5046996;28;20394;-62
2023/11/28 11:14:50;;;;;;;33.20;17.80;;;282.40;2278.40;;;;;;5058657;28;20374;-62
2023/11/28 11:17:34;;;;;;;40.83;25.98;;;282.20;2278.40;;;;;;5065670;28;20462;-59
2023/11/28 11:20:01;;;;;;;44.03;29.38;;;282.00;2278.40;;;;;;5070239;28;20016;-60
2023/11/28 11:22:32;;;;;;;50.83;38.60;;;282.00;2278.40;;;;;;5070156;28;20054;-61
2023/11/28 11:25:03;;;;;;;80.22;57.00;;;281.80;2278.40;;;;;;5069994;28;20020;-61
2023/11/28 11:27:29;;;;;;;53.35;37.15;;;282.00;2278.40;;;;;;5070045;28;20067;-61
2023/11/28 11:29:55;;;;;;;84.05;57.45;;;281.80;2278.40;;;;;;5069419;28;20044;-60
2023/11/28 11:32:22;;;;;;;78.50;53.38;;;281.90;2278.40;;;;;;5070547;28;20025;-64
2023/11/28 11:34:50;;;;;;;45.50;31.95;;;282.00;2278.40;;;;;;5070115;28;20031;-63
2023/11/28 11:37:45;;;;;;;47.08;34.13;;;282.00;2278.40;;;;;;5069671;28;20406;-62
2023/11/28 11:40:11;;;;;;;45.13;34.40;;;282.00;2278.40;;;;;;5067742;28;20114;-64
2023/11/28 11:42:39;;;;;;;58.67;40.45;;;281.70;2278.40;;;;;;5069712;28;20477;-59
2023/11/28 11:45:06;;;;;;;26.42;20.23;;;281.70;2278.40;;;;;;5069983;28;20099;-59
2023/11/28 11:47:33;;;;;;;38.25;28.90;;;281.70;2278.40;;;;;;5069920;28;20025;-58
2023/11/28 11:50:01;;;;;;;31.08;22.83;;;281.60;2278.40;;;;;;5061900;28;20379;-59
2023/11/28 11:52:29;;;;;;;127.47;90.07;;;281.80;2278.40;;;;;;5068779;28;20439;-59
2023/11/28 11:55:09;;;;;;;60.75;43.95;;;256.90;2252.80;;;;;;5069857;28;20028;-58
2023/11/28 11:57:37;;;;;;;63.92;44.05;;;256.60;2252.80;;;;;;5069998;28;20036;-59
2023/11/28 12:00:06;;;;;;;37.35;24.30;;;256.60;2252.80;;;;;;5069804;28;20484;-58
2023/11/28 12:02:49;;;;;;;44.90;26.10;;;256.60;2252.80;;;;;;5069914;28;20024;-59
2023/11/28 12:05:15;;;;;;;31.58;19.85;;;256.70;2252.80;;;;;;5069309;28;20017;-59
2023/11/28 12:07:41;;;;;;;24.92;16.98;;;256.50;2252.80;;;;;;5069792;28;20028;-58
2023/11/28 12:10:09;;;;;;;10.70;7.78;;;256.50;2252.80;;;;;;5069093;28;20490;-59
2023/11/28 12:12:36;;;;;;;44.40;25.65;;;256.80;2252.80;;;;;;5069265;28;20418;-61
2023/11/28 12:15:02;;;;;;;26.50;18.30;;;281.60;2278.40;;;;;;5069677;28;20021;-59